createdAt,value
2017-09-30T00:00:36.859Z,12.37
2017-09-30T00:03:08.033Z,12.70
2017-09-30T00:08:38.539Z,12.50
2017-09-30T00:11:09.720Z,12.37
2017-09-30T00:13:40.840Z,13.20
2017-09-30T00:16:12.008Z,12.43
2017-09-30T00:18:44.547Z,13.43
2017-09-30T00:21:16.670Z,13.60
2017-09-30T00:23:48.284Z,14.40
2017-09-30T00:26:19.694Z,13.70
2017-09-30T00:28:50.847Z,12.70
2017-09-30T00:31:21.948Z,13.53
2017-09-30T00:33:53.184Z,12.97
2017-09-30T00:36:24.280Z,13.90
2017-09-30T00:38:55.427Z,12.57
2017-09-30T00:41:26.504Z,13.50
2017-09-30T00:43:57.872Z,14.27
2017-09-30T00:46:28.993Z,13.70
2017-09-30T00:49:00.134Z,12.37
2017-09-30T00:51:31.225Z,13.93
2017-09-30T00:54:03.015Z,11.47
2017-09-30T00:56:34.186Z,12.60
2017-09-30T00:59:05.717Z,12.73
2017-09-30T01:01:36.808Z,12.67
2017-09-30T01:04:07.943Z,12.80
2017-09-30T01:06:39.038Z,12.80
2017-09-30T01:09:10.209Z,12.87
2017-09-30T01:11:41.329Z,12.13
2017-09-30T01:14:12.914Z,12.50
2017-09-30T01:16:45.489Z,13.13
2017-09-30T01:19:16.770Z,12.30
2017-09-30T01:21:49.012Z,12.90
2017-09-30T01:24:20.270Z,13.00
2017-09-30T01:26:51.562Z,12.40
2017-09-30T01:29:22.988Z,12.90
2017-09-30T01:31:54.080Z,11.63
2017-09-30T01:34:25.239Z,13.47
2017-09-30T01:36:56.344Z,12.40
2017-09-30T01:39:27.535Z,12.43
2017-09-30T01:41:58.632Z,13.30
2017-09-30T01:44:30.060Z,12.80
2017-09-30T01:47:01.520Z,12.80
2017-09-30T01:49:32.665Z,13.47
2017-09-30T01:52:05.593Z,12.70
2017-09-30T01:54:36.797Z,14.20
2017-09-30T01:57:07.906Z,13.70
2017-09-30T01:59:39.342Z,13.17
2017-09-30T02:02:10.717Z,12.80
2017-09-30T02:04:41.920Z,12.37
2017-09-30T02:07:13.309Z,12.40
2017-09-30T02:09:44.926Z,14.27
2017-09-30T02:12:16.058Z,13.13
2017-09-30T02:14:47.416Z,13.80
2017-09-30T02:17:18.508Z,14.23
2017-09-30T02:19:49.604Z,14.10
2017-09-30T02:22:20.823Z,12.90
2017-09-30T02:24:51.905Z,13.13
2017-09-30T02:27:23.008Z,13.63
2017-09-30T02:29:54.533Z,13.50
2017-09-30T02:32:25.655Z,14.37
2017-09-30T02:34:56.733Z,14.90
2017-09-30T02:37:27.813Z,13.90
2017-09-30T02:39:58.872Z,13.83
2017-09-30T02:42:29.968Z,12.90
2017-09-30T02:45:01.794Z,14.90
2017-09-30T02:47:32.912Z,14.80
2017-09-30T02:50:04.594Z,13.80
2017-09-30T02:52:35.681Z,14.80
2017-09-30T02:55:06.752Z,15.30
2017-09-30T02:57:37.864Z,14.70
2017-09-30T03:00:09.227Z,15.60
2017-09-30T03:02:40.329Z,39.60
2017-09-30T03:05:11.514Z,19.00
2017-09-30T03:07:42.981Z,17.70
2017-09-30T03:10:14.165Z,17.33
2017-09-30T03:12:46.495Z,17.47
2017-09-30T03:15:17.873Z,17.70
2017-09-30T03:17:49.182Z,15.80
2017-09-30T03:20:20.287Z,17.20
2017-09-30T03:22:51.677Z,16.40
2017-09-30T03:25:22.757Z,16.00
2017-09-30T03:27:53.815Z,17.70
2017-09-30T03:30:25.168Z,17.93
2017-09-30T03:32:56.588Z,17.07
2017-09-30T03:35:27.691Z,18.30
2017-09-30T03:37:58.761Z,18.57
2017-09-30T03:40:29.864Z,20.70
2017-09-30T03:43:00.941Z,18.23
2017-09-30T03:45:32.484Z,20.13
2017-09-30T03:48:05.076Z,18.90
2017-09-30T03:50:36.186Z,20.40
2017-09-30T03:53:07.277Z,18.40
2017-09-30T03:55:38.385Z,18.87
2017-09-30T03:58:09.584Z,17.60
2017-09-30T04:00:40.947Z,17.43
2017-09-30T04:03:12.161Z,15.67
2017-09-30T04:05:43.326Z,15.40
2017-09-30T04:08:14.797Z,17.20
2017-09-30T04:10:46.865Z,14.90
2017-09-30T04:13:17.925Z,15.80
2017-09-30T04:15:49.721Z,16.97
2017-09-30T04:18:20.868Z,16.17
2017-09-30T04:20:51.939Z,15.67
2017-09-30T04:23:23.041Z,16.67
2017-09-30T04:25:54.097Z,16.03
2017-09-30T04:28:25.224Z,16.00
2017-09-30T04:30:56.588Z,17.30
2017-09-30T04:33:27.658Z,16.73
2017-09-30T04:35:58.733Z,18.57
2017-09-30T04:38:29.780Z,17.40
2017-09-30T04:41:01.095Z,18.40
2017-09-30T04:43:32.130Z,18.27
2017-09-30T04:46:04.471Z,18.90
2017-09-30T04:48:35.513Z,18.50
2017-09-30T04:51:06.610Z,19.40
2017-09-30T04:53:37.697Z,18.63
2017-09-30T04:56:08.964Z,19.50
2017-09-30T04:58:40.433Z,18.40
2017-09-30T05:01:12.214Z,17.50
2017-09-30T05:03:43.597Z,17.23
2017-09-30T05:06:14.896Z,17.43
2017-09-30T05:08:47.359Z,17.43
2017-09-30T05:11:18.435Z,17.97
2017-09-30T05:13:50.051Z,17.10
2017-09-30T05:16:21.401Z,16.10
2017-09-30T05:18:52.586Z,17.67
2017-09-30T05:21:23.630Z,16.83
2017-09-30T05:23:54.771Z,15.70
2017-09-30T05:26:25.867Z,15.80
2017-09-30T05:28:57.069Z,15.87
2017-09-30T05:31:29.530Z,15.90
2017-09-30T05:34:00.749Z,16.27
2017-09-30T05:36:31.922Z,15.63
2017-09-30T05:39:03.708Z,16.17
2017-09-30T05:41:34.744Z,15.20
2017-09-30T05:44:06.262Z,15.80
2017-09-30T05:46:37.736Z,14.77
2017-09-30T05:49:09.058Z,16.27
2017-09-30T05:51:40.371Z,17.00
2017-09-30T05:54:11.491Z,16.77
2017-09-30T05:56:42.712Z,16.00
2017-09-30T05:59:13.831Z,16.73
2017-09-30T06:01:45.841Z,15.63
2017-09-30T06:04:16.996Z,16.00
2017-09-30T06:06:48.888Z,14.87
2017-09-30T06:09:19.961Z,16.43
2017-09-30T06:11:51.192Z,16.47
2017-09-30T06:14:22.306Z,15.80
2017-09-30T06:16:53.653Z,17.50
2017-09-30T06:19:24.671Z,17.70
2017-09-30T06:21:55.728Z,17.37
2017-09-30T06:24:27.062Z,17.60
2017-09-30T06:26:58.117Z,17.37
2017-09-30T06:29:29.180Z,16.83
2017-09-30T06:32:00.561Z,16.93
2017-09-30T06:34:31.636Z,16.07
2017-09-30T06:37:03.027Z,16.90
2017-09-30T06:39:34.083Z,17.10
2017-09-30T06:42:06.155Z,18.83
2017-09-30T06:44:37.257Z,17.33
2017-09-30T06:47:08.640Z,18.27
2017-09-30T06:49:39.762Z,18.37
2017-09-30T06:52:10.851Z,19.87
2017-09-30T06:54:42.162Z,18.67
2017-09-30T06:57:13.447Z,18.73
2017-09-30T06:59:45.624Z,17.70
2017-09-30T07:02:17.556Z,19.07
2017-09-30T07:04:49.688Z,19.13
2017-09-30T07:07:20.826Z,18.63
2017-09-30T07:09:51.934Z,19.70
2017-09-30T07:12:23.193Z,20.20
2017-09-30T07:14:54.294Z,19.67
2017-09-30T07:17:25.667Z,18.47
2017-09-30T07:19:56.712Z,18.40
2017-09-30T07:22:27.761Z,19.50
2017-09-30T07:24:58.800Z,19.87
2017-09-30T07:27:30.133Z,19.70
2017-09-30T07:30:01.339Z,19.17
2017-09-30T07:32:32.752Z,19.07
2017-09-30T07:35:04.140Z,20.60
2017-09-30T07:37:35.384Z,18.00
2017-09-30T07:40:07.280Z,18.33
2017-09-30T07:42:39.622Z,18.80
2017-09-30T07:45:10.709Z,16.47
2017-09-30T07:47:42.476Z,16.37
2017-09-30T07:50:13.701Z,16.10
2017-09-30T07:52:45.064Z,16.80
2017-09-30T07:55:16.484Z,17.53
2017-09-30T07:57:49.135Z,16.60
2017-09-30T08:00:20.294Z,15.83
2017-09-30T08:02:52.072Z,15.93
2017-09-30T08:05:23.656Z,15.10
2017-09-30T08:07:54.776Z,15.83
2017-09-30T08:10:25.835Z,15.83
2017-09-30T08:12:56.948Z,14.93
2017-09-30T08:15:28.085Z,13.73
2017-09-30T08:17:59.222Z,13.93
2017-09-30T08:20:30.306Z,14.57
2017-09-30T08:23:01.851Z,15.00
2017-09-30T08:25:33.003Z,13.63
2017-09-30T08:28:05.826Z,14.00
2017-09-30T08:30:37.500Z,12.77
2017-09-30T08:33:08.567Z,12.87
2017-09-30T08:35:39.659Z,11.10
2017-09-30T08:38:10.862Z,12.50
2017-09-30T08:40:42.009Z,11.20
2017-09-30T08:43:13.278Z,10.63
2017-09-30T08:45:45.056Z,10.53
2017-09-30T08:48:16.616Z,10.40
2017-09-30T08:50:48.738Z,9.70
2017-09-30T08:53:19.896Z,10.67
2017-09-30T08:55:51.740Z,9.90
2017-09-30T08:58:22.816Z,11.43
2017-09-30T09:00:53.884Z,10.53
2017-09-30T09:03:25.278Z,10.97
2017-09-30T09:05:56.448Z,10.73
2017-09-30T09:08:27.565Z,11.30
2017-09-30T09:10:58.654Z,10.70
2017-09-30T09:13:29.774Z,11.27
2017-09-30T09:16:01.627Z,11.40
2017-09-30T09:18:33.237Z,11.10
2017-09-30T09:21:04.466Z,11.20
2017-09-30T09:23:35.603Z,9.47
2017-09-30T09:26:07.283Z,9.93
2017-09-30T09:28:38.362Z,10.30
2017-09-30T09:31:09.481Z,9.60
2017-09-30T09:33:40.580Z,9.57
2017-09-30T09:36:12.483Z,8.57
2017-09-30T09:38:43.611Z,9.27
2017-09-30T09:41:14.720Z,10.63
2017-09-30T09:43:46.001Z,9.90
2017-09-30T09:46:17.090Z,9.53
2017-09-30T09:48:49.251Z,8.83
2017-09-30T09:51:20.374Z,10.03
2017-09-30T09:53:52.165Z,9.70
2017-09-30T09:56:24.269Z,10.20
2017-09-30T09:58:55.388Z,8.77
2017-09-30T10:01:26.502Z,8.60
2017-09-30T10:03:58.205Z,9.93
2017-09-30T10:06:29.257Z,9.03
2017-09-30T10:09:00.338Z,9.50
2017-09-30T10:11:31.752Z,9.40
2017-09-30T10:14:03.267Z,9.50
2017-09-30T10:16:40.794Z,10.10
2017-09-30T10:19:11.852Z,8.37
2017-09-30T10:21:42.918Z,9.60
2017-09-30T10:24:14.183Z,8.20
2017-09-30T10:26:45.610Z,8.23
2017-09-30T10:29:16.723Z,9.00
2017-09-30T10:34:50.130Z,7.77
2017-09-30T10:37:25.960Z,7.73
2017-09-30T10:39:57.467Z,8.57
2017-09-30T10:42:30.277Z,6.67
2017-09-30T10:45:02.120Z,7.57
2017-09-30T10:47:36.486Z,7.37
2017-09-30T10:50:14.328Z,7.00
2017-09-30T10:52:50.094Z,6.20
2017-09-30T10:55:22.417Z,7.43
2017-09-30T10:57:56.752Z,6.83
2017-09-30T11:00:34.465Z,7.80
2017-09-30T11:03:13.843Z,7.07
2017-09-30T11:05:49.416Z,7.80
2017-09-30T11:08:24.155Z,6.90
2017-09-30T11:14:05.954Z,7.40
2017-09-30T11:16:38.303Z,8.13
2017-09-30T11:19:11.924Z,6.67
2017-09-30T11:21:43.384Z,7.50
2017-09-30T11:24:17.090Z,6.73
2017-09-30T11:26:52.940Z,7.87
2017-09-30T11:29:28.832Z,7.87
2017-09-30T11:32:03.433Z,6.80
2017-09-30T11:34:34.602Z,7.60
2017-09-30T11:37:06.069Z,7.10
2017-09-30T11:39:38.458Z,6.90
2017-09-30T11:42:10.373Z,6.93
2017-09-30T11:44:41.604Z,6.53
2017-09-30T11:47:15.072Z,7.30
2017-09-30T11:49:47.323Z,7.20
2017-09-30T11:52:19.035Z,6.83
2017-09-30T11:54:50.637Z,6.33
2017-09-30T11:57:21.950Z,6.50
2017-09-30T11:59:53.094Z,6.23
2017-09-30T12:02:25.400Z,6.60
2017-09-30T12:04:56.572Z,6.60
2017-09-30T12:07:27.984Z,5.47
2017-09-30T12:09:59.451Z,6.77
2017-09-30T12:12:32.208Z,5.83
2017-09-30T12:15:07.327Z,6.27
2017-09-30T12:17:38.940Z,5.57
2017-09-30T12:20:10.166Z,6.60
2017-09-30T12:22:44.001Z,5.33
2017-09-30T12:25:15.139Z,6.40
2017-09-30T12:27:47.517Z,6.67
2017-09-30T12:30:20.067Z,6.93
2017-09-30T12:32:51.802Z,7.47
2017-09-30T12:35:23.051Z,7.77
2017-09-30T12:37:54.530Z,6.63
2017-09-30T12:40:26.147Z,7.80
2017-09-30T12:42:57.336Z,7.37
2017-09-30T12:45:31.995Z,7.43
2017-09-30T12:48:04.612Z,7.73
2017-09-30T12:50:35.879Z,7.07
2017-09-30T12:53:09.061Z,8.30
2017-09-30T12:55:40.521Z,8.20
2017-09-30T12:58:12.784Z,8.67
2017-09-30T13:00:52.424Z,8.43
2017-09-30T13:03:32.689Z,8.70
2017-09-30T13:09:45.180Z,9.00
2017-09-30T13:12:35.391Z,9.17
2017-09-30T13:15:38.914Z,7.30
2017-09-30T13:27:35.170Z,8.57
2017-09-30T13:36:40.168Z,6.20
2017-09-30T13:39:42.200Z,6.50
2017-09-30T13:45:06.654Z,6.97
2017-09-30T13:47:43.754Z,6.10
2017-09-30T13:50:32.990Z,6.50
2017-09-30T13:53:05.819Z,7.50
2017-09-30T13:55:52.672Z,6.93
2017-09-30T13:58:35.445Z,7.30
2017-09-30T14:01:33.793Z,6.17
2017-09-30T14:04:10.369Z,5.80
2017-09-30T14:06:44.157Z,5.83
2017-09-30T14:09:17.739Z,6.53
2017-09-30T14:11:53.705Z,6.20
2017-09-30T14:14:30.753Z,3.67
2017-09-30T14:17:17.816Z,2.97
2017-09-30T14:19:55.314Z,1.73
2017-09-30T14:22:32.073Z,1.97
2017-09-30T14:25:05.006Z,1.90
2017-09-30T14:27:41.921Z,1.40
2017-09-30T14:30:15.293Z,1.90
2017-09-30T14:32:50.751Z,1.40
2017-09-30T14:35:24.651Z,1.90
2017-09-30T14:38:01.784Z,1.90
2017-09-30T14:40:33.701Z,1.73
2017-09-30T14:43:05.685Z,1.13
2017-09-30T14:45:38.996Z,1.20
2017-09-30T14:48:13.789Z,2.00
2017-09-30T14:50:47.287Z,1.90
2017-09-30T14:53:19.684Z,1.70
2017-09-30T14:55:54.279Z,1.73
2017-09-30T14:58:29.659Z,1.70
2017-09-30T15:01:03.397Z,1.10
2017-09-30T15:03:35.387Z,1.30
2017-09-30T15:06:08.504Z,2.07
2017-09-30T15:08:40.154Z,2.17
2017-09-30T15:11:13.563Z,3.23
2017-09-30T15:13:47.160Z,2.20
2017-09-30T15:16:19.821Z,1.63
2017-09-30T15:18:51.482Z,1.97
2017-09-30T15:21:40.022Z,1.87
2017-09-30T15:24:15.216Z,3.77
2017-09-30T15:27:00.536Z,1.67
2017-09-30T15:29:34.314Z,1.77
2017-09-30T15:32:09.548Z,3.27
2017-09-30T15:34:43.844Z,3.10
2017-09-30T15:37:21.329Z,2.37
2017-09-30T15:39:54.807Z,6.50
2017-09-30T15:42:29.752Z,2.67
2017-09-30T16:25:08.852Z,6.50
2017-09-30T16:27:42.485Z,7.87
2017-09-30T16:30:13.851Z,10.30
2017-09-30T16:32:46.215Z,7.23
2017-09-30T16:35:17.252Z,5.33
2017-09-30T16:37:48.384Z,6.53
2017-09-30T16:40:19.878Z,6.83
2017-09-30T16:42:51.104Z,4.03
2017-09-30T16:45:22.194Z,2.93
2017-09-30T16:47:53.247Z,2.57
2017-09-30T16:50:24.494Z,2.80
2017-09-30T16:53:58.111Z,4.83
2017-09-30T16:56:29.347Z,3.03
2017-09-30T16:59:00.490Z,2.60
2017-09-30T17:01:31.679Z,2.40
2017-09-30T17:04:04.144Z,2.57
2017-09-30T17:06:35.558Z,2.43
2017-09-30T17:09:08.129Z,3.30
2017-09-30T17:11:44.273Z,4.73
2017-09-30T17:14:15.517Z,3.47
2017-09-30T17:16:48.712Z,2.90
2017-09-30T17:19:19.907Z,2.50
2017-09-30T17:21:51.261Z,2.50
2017-09-30T17:24:22.725Z,1.93
2017-09-30T17:26:53.808Z,2.70
2017-09-30T17:29:25.189Z,2.30
2017-09-30T17:31:56.294Z,2.27
2017-09-30T17:34:27.374Z,1.80
2017-09-30T17:36:58.615Z,2.70
2017-09-30T17:39:29.752Z,2.33
2017-09-30T17:42:01.067Z,1.80
2017-09-30T17:44:32.183Z,1.97
2017-09-30T17:47:04.472Z,2.80
2017-09-30T17:49:35.543Z,2.33
2017-09-30T17:52:07.267Z,2.10
2017-09-30T17:54:38.313Z,2.90
2017-09-30T17:57:10.034Z,3.23
2017-09-30T17:59:43.473Z,2.83
2017-09-30T18:02:15.167Z,2.30
2017-09-30T18:04:46.573Z,4.50
2017-09-30T18:07:17.989Z,5.47
2017-09-30T18:09:49.656Z,2.83
2017-09-30T18:12:20.931Z,2.30
2017-09-30T18:14:52.290Z,2.70
2017-09-30T18:17:23.703Z,2.30
2017-09-30T18:19:54.817Z,3.10
2017-09-30T18:22:26.473Z,2.90
2017-09-30T18:24:57.589Z,2.30
2017-09-30T18:27:29.060Z,2.77
2017-09-30T18:30:00.196Z,3.20
2017-09-30T18:32:31.316Z,1.97
2017-09-30T18:35:04.659Z,2.60
2017-09-30T18:37:36.050Z,2.73
2017-09-30T18:40:10.274Z,2.43
2017-09-30T18:42:44.109Z,2.60
2017-09-30T18:51:11.461Z,2.20
2017-09-30T18:54:00.166Z,2.07
2017-09-30T18:56:44.367Z,2.47
2017-09-30T18:59:34.684Z,2.40
2017-09-30T19:10:55.129Z,2.90
2017-09-30T19:13:46.415Z,2.27
2017-09-30T19:16:30.929Z,2.57
2017-09-30T19:19:21.288Z,30.93
2017-09-30T19:22:06.347Z,3.43
2017-09-30T19:24:57.441Z,2.53
2017-09-30T19:30:13.890Z,2.77
2017-09-30T19:32:45.037Z,3.00
2017-09-30T19:35:17.064Z,3.37
2017-09-30T19:37:48.824Z,3.20
2017-09-30T19:40:20.867Z,2.90
2017-09-30T19:42:52.506Z,2.80
2017-09-30T19:45:24.016Z,3.30
2017-09-30T19:47:55.326Z,3.27
2017-09-30T19:50:26.779Z,2.70
2017-09-30T19:52:59.306Z,3.37
2017-09-30T19:55:30.496Z,3.60
2017-09-30T19:58:03.533Z,4.37
2017-09-30T20:03:15.242Z,4.60
2017-09-30T20:05:46.445Z,4.90
2017-09-30T20:08:17.909Z,4.83
2017-09-30T20:10:49.431Z,4.00
2017-09-30T20:13:20.617Z,4.40
2017-09-30T20:15:51.694Z,5.00
2017-09-30T20:18:22.773Z,5.30
2017-09-30T20:20:54.160Z,5.10
2017-09-30T20:23:25.248Z,5.30
2017-09-30T20:25:56.526Z,5.83
2017-09-30T20:28:27.733Z,4.30
2017-09-30T20:31:00.169Z,4.93
2017-09-30T20:33:31.916Z,5.20
2017-09-30T20:36:04.257Z,4.80
2017-09-30T20:38:35.762Z,5.90
2017-09-30T20:41:06.883Z,5.50
2017-09-30T20:43:37.955Z,5.17
2017-09-30T20:46:09.023Z,5.23
2017-09-30T20:48:40.420Z,5.10
2017-09-30T20:51:11.508Z,5.70
2017-09-30T20:53:43.137Z,4.60
2017-09-30T20:56:14.233Z,5.47
2017-09-30T20:58:45.387Z,5.73
2017-09-30T21:01:16.435Z,40.77
2017-09-30T21:03:47.739Z,13.03
2017-09-30T21:06:20.128Z,5.60
2017-09-30T21:08:51.217Z,7.67
2017-09-30T21:11:22.354Z,5.20
2017-09-30T21:13:53.721Z,5.37
2017-09-30T21:16:24.785Z,5.37
2017-09-30T21:18:56.218Z,5.23
2017-09-30T21:21:27.339Z,5.33
2017-09-30T21:23:58.713Z,6.03
2017-09-30T21:26:29.935Z,5.23
2017-09-30T21:29:03.792Z,5.90
2017-09-30T21:31:34.899Z,4.17
2017-09-30T21:34:06.587Z,4.10
2017-09-30T21:36:38.081Z,4.93
2017-09-30T21:39:09.393Z,3.70
2017-09-30T21:41:40.511Z,4.03
2017-09-30T21:44:11.607Z,4.83
2017-09-30T21:46:42.707Z,4.00
2017-09-30T21:49:13.790Z,4.03
2017-09-30T21:51:45.171Z,3.73
2017-09-30T21:54:16.334Z,4.17
2017-09-30T21:56:47.548Z,3.70
2017-09-30T21:59:18.980Z,3.87
2017-09-30T22:01:50.037Z,3.83
2017-09-30T22:04:21.564Z,4.97
2017-09-30T22:06:53.091Z,4.00
2017-09-30T22:09:24.274Z,4.13
2017-09-30T22:11:55.681Z,4.10
2017-09-30T22:14:26.999Z,4.20
2017-09-30T22:16:58.539Z,5.33
2017-09-30T22:19:30.041Z,5.60
2017-09-30T22:22:03.067Z,5.47
2017-09-30T22:24:34.540Z,4.70
2017-09-30T22:27:05.604Z,4.10
2017-09-30T22:29:36.706Z,4.40
2017-09-30T22:32:07.752Z,3.97
2017-09-30T22:34:39.119Z,3.73
2017-09-30T22:37:10.452Z,3.47
2017-09-30T22:39:41.559Z,43.43
2017-09-30T22:42:12.685Z,2.63
2017-09-30T22:44:43.789Z,2.43
2017-09-30T22:47:14.845Z,2.60
2017-09-30T22:49:46.205Z,2.03
2017-09-30T22:52:17.565Z,1.70
2017-09-30T22:54:48.726Z,2.00
2017-09-30T22:57:20.322Z,2.03
2017-09-30T22:59:51.497Z,2.37
2017-09-30T23:02:22.590Z,1.40
2017-09-30T23:04:53.810Z,1.50
2017-09-30T23:07:24.858Z,1.50
2017-09-30T23:09:56.435Z,1.23
2017-09-30T23:12:27.552Z,1.53
2017-09-30T23:14:59.630Z,1.20
2017-09-30T23:17:30.858Z,1.70
2017-09-30T23:20:04.659Z,1.37
2017-09-30T23:22:35.727Z,1.20
2017-09-30T23:25:07.988Z,1.30
2017-09-30T23:27:39.053Z,1.23
2017-09-30T23:30:10.143Z,1.50
2017-09-30T23:32:41.216Z,1.90
2017-09-30T23:35:12.246Z,1.50
2017-09-30T23:37:43.590Z,1.23
2017-09-30T23:40:14.842Z,1.43
2017-09-30T23:42:46.396Z,1.80
2017-09-30T23:45:17.485Z,1.93
2017-09-30T23:47:48.644Z,2.10
2017-09-30T23:50:19.704Z,1.73
2017-09-30T23:52:51.039Z,2.50
2017-09-30T23:55:22.369Z,2.90
2017-09-30T23:57:53.484Z,2.60
